sensor_id;sensor_type;location;lat;lon;timestamp;P1;durP1;ratioP1;P2;durP2;ratioP2
17207;SDS011;8720;48.488;9.202;2022-11-10T00:00:34;2.87;;;1.10;;
17207;SDS011;8720;48.488;9.202;2022-11-10T00:03:20;1.67;;;1.10;;
17207;SDS011;8720;48.488;9.202;2022-11-10T00:06:08;3.70;;;1.43;;
17207;SDS011;8720;48.488;9.202;2022-11-10T00:08:55;1.60;;;0.90;;
17207;SDS011;8720;48.488;9.202;2022-11-10T00:11:41;3.57;;;1.70;;
17207;SDS011;8720;48.488;9.202;2022-11-10T00:14:26;1.63;;;1.07;;
17207;SDS011;8720;48.488;9.202;2022-11-10T00:17:30;2.50;;;2.20;;
17207;SDS011;8720;48.488;9.202;2022-11-10T00:20:16;1.83;;;1.00;;
17207;SDS011;8720;48.488;9.202;2022-11-10T00:23:02;2.87;;;1.10;;
17207;SDS011;8720;48.488;9.202;2022-11-10T00:25:48;3.33;;;1.80;;
17207;SDS011;8720;48.488;9.202;2022-11-10T00:28:34;1.70;;;1.00;;
17207;SDS011;8720;48.488;9.202;2022-11-10T00:31:19;2.77;;;1.20;;
17207;SDS011;8720;48.488;9.202;2022-11-10T00:34:05;1.20;;;1.00;;
17207;SDS011;8720;48.488;9.202;2022-11-10T00:36:55;3.83;;;1.13;;
17207;SDS011;8720;48.488;9.202;2022-11-10T00:39:42;1.90;;;1.00;;
17207;SDS011;8720;48.488;9.202;2022-11-10T00:42:30;3.57;;;1.07;;
17207;SDS011;8720;48.488;9.202;2022-11-10T00:45:15;4.13;;;2.00;;
17207;SDS011;8720;48.488;9.202;2022-11-10T00:48:01;3.03;;;1.10;;
17207;SDS011;8720;48.488;9.202;2022-11-10T00:50:49;2.17;;;1.00;;
17207;SDS011;8720;48.488;9.202;2022-11-10T00:53:35;3.13;;;1.33;;
17207;SDS011;8720;48.488;9.202;2022-11-10T00:56:21;1.70;;;1.20;;
17207;SDS011;8720;48.488;9.202;2022-11-10T00:59:09;1.80;;;1.00;;
17207;SDS011;8720;48.488;9.202;2022-11-10T01:01:55;1.77;;;0.90;;
17207;SDS011;8720;48.488;9.202;2022-11-10T01:04:40;3.63;;;1.27;;
17207;SDS011;8720;48.488;9.202;2022-11-10T01:07:26;1.47;;;0.90;;
17207;SDS011;8720;48.488;9.202;2022-11-10T01:10:11;2.33;;;1.07;;
17207;SDS011;8720;48.488;9.202;2022-11-10T01:12:57;1.70;;;1.10;;
17207;SDS011;8720;48.488;9.202;2022-11-10T01:15:46;5.27;;;1.10;;
17207;SDS011;8720;48.488;9.202;2022-11-10T01:18:32;3.50;;;1.20;;
17207;SDS011;8720;48.488;9.202;2022-11-10T01:21:19;2.80;;;1.10;;
17207;SDS011;8720;48.488;9.202;2022-11-10T01:24:06;2.43;;;1.20;;
17207;SDS011;8720;48.488;9.202;2022-11-10T01:26:52;1.40;;;1.10;;
17207;SDS011;8720;48.488;9.202;2022-11-10T01:29:38;2.07;;;1.30;;
17207;SDS011;8720;48.488;9.202;2022-11-10T01:32:25;2.00;;;1.00;;
17207;SDS011;8720;48.488;9.202;2022-11-10T01:35:11;3.90;;;1.63;;
17207;SDS011;8720;48.488;9.202;2022-11-10T01:37:56;1.50;;;1.20;;
17207;SDS011;8720;48.488;9.202;2022-11-10T01:40:42;2.80;;;1.23;;
17207;SDS011;8720;48.488;9.202;2022-11-10T01:43:28;4.20;;;1.40;;
17207;SDS011;8720;48.488;9.202;2022-11-10T01:46:15;2.73;;;2.00;;
17207;SDS011;8720;48.488;9.202;2022-11-10T01:49:02;3.33;;;1.10;;
17207;SDS011;8720;48.488;9.202;2022-11-10T01:51:50;2.50;;;1.13;;
17207;SDS011;8720;48.488;9.202;2022-11-10T01:54:42;2.47;;;1.07;;
17207;SDS011;8720;48.488;9.202;2022-11-10T01:57:32;1.20;;;1.00;;
17207;SDS011;8720;48.488;9.202;2022-11-10T02:00:20;1.73;;;0.90;;
17207;SDS011;8720;48.488;9.202;2022-11-10T02:03:08;2.17;;;1.60;;
17207;SDS011;8720;48.488;9.202;2022-11-10T02:06:01;2.37;;;1.40;;
17207;SDS011;8720;48.488;9.202;2022-11-10T02:08:48;2.13;;;1.93;;
17207;SDS011;8720;48.488;9.202;2022-11-10T02:11:36;1.77;;;1.30;;
17207;SDS011;8720;48.488;9.202;2022-11-10T02:14:24;1.70;;;1.60;;
17207;SDS011;8720;48.488;9.202;2022-11-10T02:17:13;2.50;;;1.60;;
17207;SDS011;8720;48.488;9.202;2022-11-10T02:20:00;5.37;;;2.33;;
17207;SDS011;8720;48.488;9.202;2022-11-10T02:22:50;1.77;;;1.40;;
17207;SDS011;8720;48.488;9.202;2022-11-10T02:25:36;1.70;;;1.50;;
17207;SDS011;8720;48.488;9.202;2022-11-10T02:28:21;1.60;;;1.40;;
17207;SDS011;8720;48.488;9.202;2022-11-10T02:31:08;2.40;;;1.80;;
17207;SDS011;8720;48.488;9.202;2022-11-10T02:33:54;2.00;;;1.60;;
17207;SDS011;8720;48.488;9.202;2022-11-10T02:36:39;2.40;;;1.80;;
17207;SDS011;8720;48.488;9.202;2022-11-10T02:39:27;2.80;;;1.97;;
17207;SDS011;8720;48.488;9.202;2022-11-10T02:42:12;2.43;;;2.10;;
17207;SDS011;8720;48.488;9.202;2022-11-10T02:44:58;2.20;;;1.77;;
17207;SDS011;8720;48.488;9.202;2022-11-10T02:47:43;2.47;;;1.50;;
17207;SDS011;8720;48.488;9.202;2022-11-10T02:50:29;3.13;;;1.83;;
17207;SDS011;8720;48.488;9.202;2022-11-10T02:53:14;2.40;;;2.03;;
17207;SDS011;8720;48.488;9.202;2022-11-10T02:56:01;3.17;;;2.03;;
17207;SDS011;8720;48.488;9.202;2022-11-10T02:58:47;2.43;;;2.10;;
17207;SDS011;8720;48.488;9.202;2022-11-10T03:01:32;3.00;;;2.23;;
17207;SDS011;8720;48.488;9.202;2022-11-10T03:04:18;2.73;;;2.40;;
17207;SDS011;8720;48.488;9.202;2022-11-10T03:07:04;2.20;;;1.90;;
17207;SDS011;8720;48.488;9.202;2022-11-10T03:09:49;3.73;;;2.43;;
17207;SDS011;8720;48.488;9.202;2022-11-10T03:12:36;3.70;;;1.70;;
17207;SDS011;8720;48.488;9.202;2022-11-10T03:15:22;3.17;;;2.07;;
17207;SDS011;8720;48.488;9.202;2022-11-10T03:18:08;1.80;;;1.70;;
17207;SDS011;8720;48.488;9.202;2022-11-10T03:20:53;3.40;;;1.73;;
17207;SDS011;8720;48.488;9.202;2022-11-10T03:23:39;1.60;;;1.30;;
17207;SDS011;8720;48.488;9.202;2022-11-10T03:26:24;1.47;;;1.37;;
17207;SDS011;8720;48.488;9.202;2022-11-10T03:29:14;2.00;;;1.80;;
17207;SDS011;8720;48.488;9.202;2022-11-10T03:32:00;6.40;;;1.67;;
17207;SDS011;8720;48.488;9.202;2022-11-10T03:34:46;2.73;;;1.50;;
17207;SDS011;8720;48.488;9.202;2022-11-10T03:37:31;3.47;;;1.30;;
17207;SDS011;8720;48.488;9.202;2022-11-10T03:40:17;1.80;;;1.23;;
17207;SDS011;8720;48.488;9.202;2022-11-10T03:43:03;2.43;;;1.30;;
17207;SDS011;8720;48.488;9.202;2022-11-10T03:45:50;3.47;;;1.33;;
17207;SDS011;8720;48.488;9.202;2022-11-10T03:48:35;2.30;;;1.33;;
17207;SDS011;8720;48.488;9.202;2022-11-10T03:51:21;1.60;;;1.20;;
17207;SDS011;8720;48.488;9.202;2022-11-10T03:54:07;1.40;;;1.30;;
17207;SDS011;8720;48.488;9.202;2022-11-10T03:56:53;4.10;;;1.53;;
17207;SDS011;8720;48.488;9.202;2022-11-10T03:59:38;1.53;;;1.40;;
17207;SDS011;8720;48.488;9.202;2022-11-10T04:02:28;3.63;;;1.47;;
17207;SDS011;8720;48.488;9.202;2022-11-10T04:05:13;2.07;;;1.73;;
17207;SDS011;8720;48.488;9.202;2022-11-10T04:08:31;1.90;;;1.70;;
17207;SDS011;8720;48.488;9.202;2022-11-10T04:11:31;3.87;;;1.83;;
17207;SDS011;8720;48.488;9.202;2022-11-10T04:14:35;1.60;;;1.30;;
17207;SDS011;8720;48.488;9.202;2022-11-10T04:17:40;2.10;;;1.40;;
17207;SDS011;8720;48.488;9.202;2022-11-10T04:20:25;1.80;;;1.23;;
17207;SDS011;8720;48.488;9.202;2022-11-10T04:23:11;1.87;;;1.30;;
17207;SDS011;8720;48.488;9.202;2022-11-10T04:26:14;1.57;;;1.47;;
17207;SDS011;8720;48.488;9.202;2022-11-10T04:29:17;3.93;;;1.30;;
17207;SDS011;8720;48.488;9.202;2022-11-10T04:32:04;3.70;;;1.40;;
17207;SDS011;8720;48.488;9.202;2022-11-10T04:34:51;1.90;;;1.43;;
17207;SDS011;8720;48.488;9.202;2022-11-10T04:37:39;2.73;;;1.30;;
17207;SDS011;8720;48.488;9.202;2022-11-10T04:40:28;3.17;;;1.53;;
17207;SDS011;8720;48.488;9.202;2022-11-10T04:43:14;4.17;;;1.33;;
17207;SDS011;8720;48.488;9.202;2022-11-10T04:45:59;2.00;;;1.33;;
17207;SDS011;8720;48.488;9.202;2022-11-10T04:48:46;1.70;;;1.30;;
17207;SDS011;8720;48.488;9.202;2022-11-10T04:51:34;4.03;;;1.60;;
17207;SDS011;8720;48.488;9.202;2022-11-10T04:54:21;2.33;;;1.50;;
17207;SDS011;8720;48.488;9.202;2022-11-10T04:57:07;2.50;;;1.87;;
17207;SDS011;8720;48.488;9.202;2022-11-10T04:59:52;1.93;;;1.33;;
17207;SDS011;8720;48.488;9.202;2022-11-10T05:02:38;3.33;;;1.70;;
17207;SDS011;8720;48.488;9.202;2022-11-10T05:05:23;2.00;;;1.60;;
17207;SDS011;8720;48.488;9.202;2022-11-10T05:08:10;1.90;;;1.53;;
17207;SDS011;8720;48.488;9.202;2022-11-10T05:10:56;3.13;;;2.13;;
17207;SDS011;8720;48.488;9.202;2022-11-10T05:13:43;3.13;;;1.83;;
17207;SDS011;8720;48.488;9.202;2022-11-10T05:16:29;3.00;;;1.80;;
17207;SDS011;8720;48.488;9.202;2022-11-10T05:19:15;2.87;;;1.70;;
17207;SDS011;8720;48.488;9.202;2022-11-10T05:22:01;4.33;;;2.23;;
17207;SDS011;8720;48.488;9.202;2022-11-10T05:24:51;5.63;;;2.17;;
17207;SDS011;8720;48.488;9.202;2022-11-10T05:27:37;2.20;;;1.70;;
17207;SDS011;8720;48.488;9.202;2022-11-10T05:30:25;2.37;;;1.70;;
17207;SDS011;8720;48.488;9.202;2022-11-10T05:33:11;2.30;;;1.40;;
17207;SDS011;8720;48.488;9.202;2022-11-10T05:35:57;1.90;;;1.60;;
17207;SDS011;8720;48.488;9.202;2022-11-10T05:38:43;4.37;;;2.00;;
17207;SDS011;8720;48.488;9.202;2022-11-10T05:41:30;2.50;;;1.83;;
17207;SDS011;8720;48.488;9.202;2022-11-10T05:44:16;1.77;;;1.47;;
17207;SDS011;8720;48.488;9.202;2022-11-10T05:47:02;3.20;;;2.20;;
17207;SDS011;8720;48.488;9.202;2022-11-10T05:49:48;2.27;;;1.70;;
17207;SDS011;8720;48.488;9.202;2022-11-10T05:52:33;2.67;;;1.70;;
17207;SDS011;8720;48.488;9.202;2022-11-10T05:55:23;3.10;;;2.10;;
17207;SDS011;8720;48.488;9.202;2022-11-10T05:58:13;3.20;;;2.33;;
17207;SDS011;8720;48.488;9.202;2022-11-10T06:00:59;4.00;;;2.10;;
17207;SDS011;8720;48.488;9.202;2022-11-10T06:03:45;3.63;;;2.40;;
17207;SDS011;8720;48.488;9.202;2022-11-10T06:06:30;4.13;;;2.17;;
17207;SDS011;8720;48.488;9.202;2022-11-10T06:09:16;6.73;;;2.97;;
17207;SDS011;8720;48.488;9.202;2022-11-10T06:12:01;5.10;;;2.30;;
17207;SDS011;8720;48.488;9.202;2022-11-10T06:14:49;3.00;;;2.30;;
17207;SDS011;8720;48.488;9.202;2022-11-10T06:17:35;4.43;;;2.27;;
17207;SDS011;8720;48.488;9.202;2022-11-10T06:20:22;4.40;;;2.90;;
17207;SDS011;8720;48.488;9.202;2022-11-10T06:23:11;3.33;;;2.10;;
17207;SDS011;8720;48.488;9.202;2022-11-10T06:25:58;3.00;;;2.50;;
17207;SDS011;8720;48.488;9.202;2022-11-10T06:28:43;3.63;;;2.50;;
17207;SDS011;8720;48.488;9.202;2022-11-10T06:31:31;2.10;;;1.90;;
17207;SDS011;8720;48.488;9.202;2022-11-10T06:34:16;4.93;;;1.80;;
17207;SDS011;8720;48.488;9.202;2022-11-10T06:37:02;3.13;;;2.37;;
17207;SDS011;8720;48.488;9.202;2022-11-10T06:39:47;2.40;;;2.20;;
17207;SDS011;8720;48.488;9.202;2022-11-10T06:42:33;2.97;;;2.30;;
17207;SDS011;8720;48.488;9.202;2022-11-10T06:45:20;2.20;;;1.83;;
17207;SDS011;8720;48.488;9.202;2022-11-10T06:48:08;2.63;;;2.03;;
17207;SDS011;8720;48.488;9.202;2022-11-10T06:50:58;3.60;;;2.43;;
17207;SDS011;8720;48.488;9.202;2022-11-10T06:53:44;2.37;;;2.17;;
17207;SDS011;8720;48.488;9.202;2022-11-10T06:56:30;5.07;;;2.50;;
17207;SDS011;8720;48.488;9.202;2022-11-10T06:59:15;4.47;;;3.40;;
17207;SDS011;8720;48.488;9.202;2022-11-10T07:02:01;15.57;;;10.57;;
17207;SDS011;8720;48.488;9.202;2022-11-10T07:04:48;8.70;;;6.50;;
17207;SDS011;8720;48.488;9.202;2022-11-10T07:07:34;16.50;;;5.53;;
17207;SDS011;8720;48.488;9.202;2022-11-10T07:10:19;40.90;;;6.57;;
17207;SDS011;8720;48.488;9.202;2022-11-10T07:13:05;104.33;;;11.73;;
17207;SDS011;8720;48.488;9.202;2022-11-10T07:15:50;80.10;;;9.53;;
17207;SDS011;8720;48.488;9.202;2022-11-10T07:18:36;71.13;;;8.50;;
17207;SDS011;8720;48.488;9.202;2022-11-10T07:21:23;110.83;;;12.43;;
17207;SDS011;8720;48.488;9.202;2022-11-10T07:24:09;19.53;;;5.70;;
17207;SDS011;8720;48.488;9.202;2022-11-10T07:26:56;55.17;;;8.60;;
17207;SDS011;8720;48.488;9.202;2022-11-10T07:29:42;19.47;;;5.13;;
17207;SDS011;8720;48.488;9.202;2022-11-10T07:32:30;24.83;;;5.70;;
17207;SDS011;8720;48.488;9.202;2022-11-10T07:35:16;19.57;;;6.17;;
17207;SDS011;8720;48.488;9.202;2022-11-10T07:38:06;6.17;;;5.10;;
17207;SDS011;8720;48.488;9.202;2022-11-10T07:40:54;8.40;;;5.70;;
17207;SDS011;8720;48.488;9.202;2022-11-10T07:43:40;5.63;;;5.13;;
17207;SDS011;8720;48.488;9.202;2022-11-10T07:46:29;8.07;;;5.73;;
17207;SDS011;8720;48.488;9.202;2022-11-10T07:49:15;8.90;;;5.33;;
17207;SDS011;8720;48.488;9.202;2022-11-10T07:52:01;10.10;;;5.40;;
17207;SDS011;8720;48.488;9.202;2022-11-10T07:54:48;8.27;;;7.20;;
17207;SDS011;8720;48.488;9.202;2022-11-10T07:57:34;6.73;;;6.03;;
17207;SDS011;8720;48.488;9.202;2022-11-10T08:00:20;12.43;;;6.80;;
17207;SDS011;8720;48.488;9.202;2022-11-10T08:03:06;7.23;;;6.53;;
17207;SDS011;8720;48.488;9.202;2022-11-10T08:05:55;8.50;;;7.30;;
17207;SDS011;8720;48.488;9.202;2022-11-10T08:08:41;8.03;;;7.30;;
17207;SDS011;8720;48.488;9.202;2022-11-10T08:11:28;9.87;;;8.87;;
17207;SDS011;8720;48.488;9.202;2022-11-10T08:14:14;11.10;;;10.00;;
17207;SDS011;8720;48.488;9.202;2022-11-10T08:16:59;10.53;;;9.50;;
17207;SDS011;8720;48.488;9.202;2022-11-10T08:19:45;10.20;;;9.20;;
17207;SDS011;8720;48.488;9.202;2022-11-10T08:22:31;8.53;;;7.73;;
17207;SDS011;8720;48.488;9.202;2022-11-10T08:25:16;8.97;;;8.10;;
17207;SDS011;8720;48.488;9.202;2022-11-10T08:28:04;8.20;;;7.40;;
17207;SDS011;8720;48.488;9.202;2022-11-10T08:30:52;7.60;;;6.90;;
17207;SDS011;8720;48.488;9.202;2022-11-10T08:33:38;6.30;;;5.53;;
17207;SDS011;8720;48.488;9.202;2022-11-10T08:36:23;6.50;;;5.40;;
17207;SDS011;8720;48.488;9.202;2022-11-10T08:39:09;5.47;;;4.97;;
17207;SDS011;8720;48.488;9.202;2022-11-10T08:41:56;5.47;;;4.60;;
17207;SDS011;8720;48.488;9.202;2022-11-10T08:44:43;6.17;;;3.70;;
17207;SDS011;8720;48.488;9.202;2022-11-10T08:47:29;4.23;;;3.83;;
17207;SDS011;8720;48.488;9.202;2022-11-10T08:50:15;4.97;;;4.53;;
17207;SDS011;8720;48.488;9.202;2022-11-10T08:53:01;4.70;;;4.30;;
17207;SDS011;8720;48.488;9.202;2022-11-10T08:55:49;7.30;;;5.50;;
17207;SDS011;8720;48.488;9.202;2022-11-10T08:58:36;8.20;;;6.77;;
17207;SDS011;8720;48.488;9.202;2022-11-10T09:01:23;6.53;;;5.93;;
17207;SDS011;8720;48.488;9.202;2022-11-10T09:04:09;6.03;;;5.00;;
17207;SDS011;8720;48.488;9.202;2022-11-10T09:06:58;5.20;;;4.80;;
17207;SDS011;8720;48.488;9.202;2022-11-10T09:09:43;7.57;;;5.47;;
17207;SDS011;8720;48.488;9.202;2022-11-10T09:12:29;5.63;;;5.17;;
17207;SDS011;8720;48.488;9.202;2022-11-10T09:15:15;5.83;;;4.57;;
17207;SDS011;8720;48.488;9.202;2022-11-10T09:18:04;6.23;;;5.20;;
17207;SDS011;8720;48.488;9.202;2022-11-10T09:20:52;6.03;;;4.70;;
17207;SDS011;8720;48.488;9.202;2022-11-10T09:23:37;7.83;;;3.33;;
17207;SDS011;8720;48.488;9.202;2022-11-10T09:26:23;3.40;;;2.40;;
17207;SDS011;8720;48.488;9.202;2022-11-10T09:29:09;3.60;;;2.70;;
17207;SDS011;8720;48.488;9.202;2022-11-10T09:31:54;2.97;;;2.30;;
17207;SDS011;8720;48.488;9.202;2022-11-10T09:34:42;5.30;;;2.87;;
17207;SDS011;8720;48.488;9.202;2022-11-10T09:37:28;3.73;;;1.80;;
17207;SDS011;8720;48.488;9.202;2022-11-10T09:40:15;3.17;;;2.33;;
17207;SDS011;8720;48.488;9.202;2022-11-10T09:43:05;2.63;;;1.87;;
17207;SDS011;8720;48.488;9.202;2022-11-10T09:46:08;5.33;;;2.90;;
17207;SDS011;8720;48.488;9.202;2022-11-10T09:49:02;1.90;;;1.63;;
17207;SDS011;8720;48.488;9.202;2022-11-10T09:52:04;3.20;;;1.70;;
17207;SDS011;8720;48.488;9.202;2022-11-10T09:54:55;2.83;;;1.70;;
17207;SDS011;8720;48.488;9.202;2022-11-10T09:57:48;2.43;;;2.10;;
17207;SDS011;8720;48.488;9.202;2022-11-10T10:00:40;3.73;;;1.63;;
17207;SDS011;8720;48.488;9.202;2022-11-10T10:03:34;6.20;;;1.90;;
17207;SDS011;8720;48.488;9.202;2022-11-10T10:06:30;4.10;;;1.60;;
17207;SDS011;8720;48.488;9.202;2022-11-10T10:09:30;1.90;;;1.60;;
17207;SDS011;8720;48.488;9.202;2022-11-10T10:12:38;3.20;;;1.80;;
17207;SDS011;8720;48.488;9.202;2022-11-10T10:15:43;4.30;;;1.70;;
17207;SDS011;8720;48.488;9.202;2022-11-10T10:18:49;3.13;;;1.83;;
17207;SDS011;8720;48.488;9.202;2022-11-10T10:21:45;3.30;;;1.80;;
17207;SDS011;8720;48.488;9.202;2022-11-10T10:25:00;2.80;;;1.60;;
17207;SDS011;8720;48.488;9.202;2022-11-10T10:27:57;1.80;;;1.40;;
17207;SDS011;8720;48.488;9.202;2022-11-10T10:30:55;2.00;;;1.47;;
17207;SDS011;8720;48.488;9.202;2022-11-10T10:33:56;2.20;;;1.40;;
17207;SDS011;8720;48.488;9.202;2022-11-10T10:36:42;2.60;;;1.53;;
17207;SDS011;8720;48.488;9.202;2022-11-10T10:39:30;3.93;;;1.30;;
17207;SDS011;8720;48.488;9.202;2022-11-10T10:42:26;1.93;;;1.37;;
17207;SDS011;8720;48.488;9.202;2022-11-10T10:45:20;5.90;;;2.70;;
17207;SDS011;8720;48.488;9.202;2022-11-10T10:48:22;1.90;;;1.70;;
17207;SDS011;8720;48.488;9.202;2022-11-10T10:51:11;3.90;;;1.53;;
17207;SDS011;8720;48.488;9.202;2022-11-10T10:54:24;2.27;;;1.20;;
17207;SDS011;8720;48.488;9.202;2022-11-10T10:57:19;2.00;;;1.20;;
17207;SDS011;8720;48.488;9.202;2022-11-10T11:00:17;2.10;;;1.30;;
17207;SDS011;8720;48.488;9.202;2022-11-10T11:03:05;1.83;;;1.30;;
17207;SDS011;8720;48.488;9.202;2022-11-10T11:06:11;2.47;;;1.57;;
17207;SDS011;8720;48.488;9.202;2022-11-10T11:09:13;2.03;;;1.30;;
17207;SDS011;8720;48.488;9.202;2022-11-10T11:12:03;2.80;;;1.57;;
17207;SDS011;8720;48.488;9.202;2022-11-10T11:14:54;2.70;;;1.30;;
17207;SDS011;8720;48.488;9.202;2022-11-10T11:18:14;2.30;;;1.30;;
17207;SDS011;8720;48.488;9.202;2022-11-10T11:21:07;3.63;;;1.43;;
17207;SDS011;8720;48.488;9.202;2022-11-10T11:24:14;2.40;;;1.63;;
17207;SDS011;8720;48.488;9.202;2022-11-10T11:27:17;2.57;;;1.50;;
17207;SDS011;8720;48.488;9.202;2022-11-10T11:30:13;3.10;;;1.13;;
17207;SDS011;8720;48.488;9.202;2022-11-10T11:33:08;3.87;;;1.30;;
17207;SDS011;8720;48.488;9.202;2022-11-10T11:36:13;3.27;;;1.50;;
17207;SDS011;8720;48.488;9.202;2022-11-10T11:39:15;3.33;;;1.23;;
17207;SDS011;8720;48.488;9.202;2022-11-10T11:42:23;5.43;;;1.43;;
17207;SDS011;8720;48.488;9.202;2022-11-10T11:45:26;2.90;;;1.10;;
17207;SDS011;8720;48.488;9.202;2022-11-10T11:51:45;2.27;;;1.33;;
17207;SDS011;8720;48.488;9.202;2022-11-10T11:54:47;1.70;;;1.10;;
17207;SDS011;8720;48.488;9.202;2022-11-10T11:58:00;3.67;;;1.10;;
17207;SDS011;8720;48.488;9.202;2022-11-10T12:01:12;2.87;;;1.33;;
17207;SDS011;8720;48.488;9.202;2022-11-10T12:04:23;2.33;;;1.00;;
17207;SDS011;8720;48.488;9.202;2022-11-10T12:07:31;1.57;;;1.10;;
17207;SDS011;8720;48.488;9.202;2022-11-10T12:10:34;2.23;;;1.23;;
17207;SDS011;8720;48.488;9.202;2022-11-10T12:13:34;2.17;;;1.23;;
17207;SDS011;8720;48.488;9.202;2022-11-10T12:16:29;1.70;;;1.33;;
17207;SDS011;8720;48.488;9.202;2022-11-10T12:19:20;3.53;;;1.40;;
17207;SDS011;8720;48.488;9.202;2022-11-10T12:22:24;4.23;;;1.40;;
17207;SDS011;8720;48.488;9.202;2022-11-10T12:25:22;2.23;;;0.97;;
17207;SDS011;8720;48.488;9.202;2022-11-10T12:28:16;1.50;;;1.20;;
17207;SDS011;8720;48.488;9.202;2022-11-10T12:31:09;2.53;;;1.20;;
17207;SDS011;8720;48.488;9.202;2022-11-10T12:34:04;1.90;;;1.17;;
17207;SDS011;8720;48.488;9.202;2022-11-10T12:37:01;3.33;;;1.00;;
17207;SDS011;8720;48.488;9.202;2022-11-10T12:39:52;5.93;;;1.27;;
17207;SDS011;8720;48.488;9.202;2022-11-10T12:42:46;2.37;;;1.10;;
17207;SDS011;8720;48.488;9.202;2022-11-10T12:45:43;2.87;;;1.30;;
17207;SDS011;8720;48.488;9.202;2022-11-10T12:48:35;3.10;;;1.20;;
17207;SDS011;8720;48.488;9.202;2022-11-10T12:51:35;2.00;;;1.13;;
17207;SDS011;8720;48.488;9.202;2022-11-10T12:54:35;2.43;;;1.10;;
17207;SDS011;8720;48.488;9.202;2022-11-10T12:57:22;1.63;;;0.90;;
17207;SDS011;8720;48.488;9.202;2022-11-10T13:00:22;3.10;;;1.50;;
17207;SDS011;8720;48.488;9.202;2022-11-10T13:03:13;2.90;;;1.20;;
17207;SDS011;8720;48.488;9.202;2022-11-10T13:06:22;1.67;;;1.10;;
17207;SDS011;8720;48.488;9.202;2022-11-10T13:09:26;1.60;;;1.13;;
17207;SDS011;8720;48.488;9.202;2022-11-10T13:12:17;2.17;;;1.23;;
17207;SDS011;8720;48.488;9.202;2022-11-10T13:22:04;2.43;;;1.67;;
17207;SDS011;8720;48.488;9.202;2022-11-10T13:29:00;2.90;;;1.40;;
17207;SDS011;8720;48.488;9.202;2022-11-10T13:31:50;3.47;;;1.80;;
17207;SDS011;8720;48.488;9.202;2022-11-10T13:34:39;1.63;;;1.03;;
17207;SDS011;8720;48.488;9.202;2022-11-10T13:37:42;1.93;;;1.23;;
17207;SDS011;8720;48.488;9.202;2022-11-10T13:40:35;2.87;;;1.37;;
17207;SDS011;8720;48.488;9.202;2022-11-10T13:43:24;1.90;;;1.20;;
17207;SDS011;8720;48.488;9.202;2022-11-10T13:46:13;5.33;;;1.37;;
17207;SDS011;8720;48.488;9.202;2022-11-10T13:49:10;2.70;;;1.40;;
17207;SDS011;8720;48.488;9.202;2022-11-10T13:52:22;2.07;;;1.20;;
17207;SDS011;8720;48.488;9.202;2022-11-10T13:55:38;2.13;;;1.20;;
17207;SDS011;8720;48.488;9.202;2022-11-10T13:58:43;4.17;;;1.27;;
17207;SDS011;8720;48.488;9.202;2022-11-10T14:01:31;2.53;;;1.20;;
17207;SDS011;8720;48.488;9.202;2022-11-10T14:07:24;1.23;;;0.93;;
17207;SDS011;8720;48.488;9.202;2022-11-10T14:10:18;1.87;;;1.20;;
17207;SDS011;8720;48.488;9.202;2022-11-10T14:13:21;1.70;;;1.20;;
17207;SDS011;8720;48.488;9.202;2022-11-10T14:16:19;1.40;;;1.00;;
17207;SDS011;8720;48.488;9.202;2022-11-10T14:19:22;2.10;;;1.10;;
17207;SDS011;8720;48.488;9.202;2022-11-10T14:22:21;1.80;;;1.10;;
17207;SDS011;8720;48.488;9.202;2022-11-10T14:25:16;2.90;;;1.43;;
17207;SDS011;8720;48.488;9.202;2022-11-10T14:28:21;1.63;;;1.30;;
17207;SDS011;8720;48.488;9.202;2022-11-10T14:31:15;2.90;;;1.70;;
17207;SDS011;8720;48.488;9.202;2022-11-10T14:34:10;1.90;;;1.30;;
17207;SDS011;8720;48.488;9.202;2022-11-10T14:37:01;2.60;;;1.20;;
17207;SDS011;8720;48.488;9.202;2022-11-10T14:39:49;2.30;;;1.73;;
17207;SDS011;8720;48.488;9.202;2022-11-10T14:42:38;2.60;;;1.10;;
17207;SDS011;8720;48.488;9.202;2022-11-10T14:45:24;1.90;;;1.33;;
17207;SDS011;8720;48.488;9.202;2022-11-10T14:48:15;2.70;;;1.20;;
17207;SDS011;8720;48.488;9.202;2022-11-10T14:51:04;2.07;;;1.43;;
17207;SDS011;8720;48.488;9.202;2022-11-10T14:53:58;2.60;;;1.20;;
17207;SDS011;8720;48.488;9.202;2022-11-10T14:56:45;2.00;;;1.20;;
17207;SDS011;8720;48.488;9.202;2022-11-10T14:59:31;3.93;;;1.70;;
17207;SDS011;8720;48.488;9.202;2022-11-10T15:02:17;5.47;;;2.00;;
17207;SDS011;8720;48.488;9.202;2022-11-10T15:05:04;2.23;;;1.30;;
17207;SDS011;8720;48.488;9.202;2022-11-10T15:07:56;2.30;;;1.50;;
17207;SDS011;8720;48.488;9.202;2022-11-10T15:10:46;3.30;;;1.50;;
17207;SDS011;8720;48.488;9.202;2022-11-10T15:13:36;2.73;;;1.40;;
17207;SDS011;8720;48.488;9.202;2022-11-10T15:16:23;2.20;;;1.80;;
17207;SDS011;8720;48.488;9.202;2022-11-10T15:19:18;2.17;;;1.40;;
17207;SDS011;8720;48.488;9.202;2022-11-10T15:22:11;2.83;;;1.60;;
17207;SDS011;8720;48.488;9.202;2022-11-10T15:25:06;2.53;;;1.20;;
17207;SDS011;8720;48.488;9.202;2022-11-10T15:28:00;2.27;;;1.20;;
17207;SDS011;8720;48.488;9.202;2022-11-10T15:30:58;2.53;;;1.30;;
17207;SDS011;8720;48.488;9.202;2022-11-10T15:33:48;3.20;;;1.30;;
17207;SDS011;8720;48.488;9.202;2022-11-10T15:36:36;4.50;;;1.60;;
17207;SDS011;8720;48.488;9.202;2022-11-10T15:39:23;1.57;;;1.10;;
17207;SDS011;8720;48.488;9.202;2022-11-10T15:42:13;1.87;;;1.20;;
17207;SDS011;8720;48.488;9.202;2022-11-10T15:45:03;2.10;;;1.20;;
17207;SDS011;8720;48.488;9.202;2022-11-10T15:47:49;1.93;;;1.20;;
17207;SDS011;8720;48.488;9.202;2022-11-10T15:50:36;2.90;;;1.80;;
17207;SDS011;8720;48.488;9.202;2022-11-10T15:53:23;3.67;;;1.57;;
17207;SDS011;8720;48.488;9.202;2022-11-10T15:56:14;1.50;;;1.40;;
17207;SDS011;8720;48.488;9.202;2022-11-10T15:59:03;1.60;;;1.40;;
17207;SDS011;8720;48.488;9.202;2022-11-10T16:01:50;2.83;;;1.30;;
17207;SDS011;8720;48.488;9.202;2022-11-10T16:04:37;1.67;;;1.30;;
17207;SDS011;8720;48.488;9.202;2022-11-10T16:07:23;4.40;;;1.50;;
17207;SDS011;8720;48.488;9.202;2022-11-10T16:10:09;2.53;;;1.93;;
17207;SDS011;8720;48.488;9.202;2022-11-10T16:12:55;3.00;;;1.70;;
17207;SDS011;8720;48.488;9.202;2022-11-10T16:15:41;4.13;;;2.80;;
17207;SDS011;8720;48.488;9.202;2022-11-10T16:18:31;4.10;;;2.70;;
17207;SDS011;8720;48.488;9.202;2022-11-10T16:21:17;3.40;;;2.27;;
17207;SDS011;8720;48.488;9.202;2022-11-10T16:24:06;2.77;;;2.40;;
17207;SDS011;8720;48.488;9.202;2022-11-10T16:26:52;3.60;;;2.57;;
17207;SDS011;8720;48.488;9.202;2022-11-10T16:29:38;4.20;;;2.37;;
17207;SDS011;8720;48.488;9.202;2022-11-10T16:32:25;3.03;;;2.50;;
17207;SDS011;8720;48.488;9.202;2022-11-10T16:35:13;3.90;;;2.93;;
17207;SDS011;8720;48.488;9.202;2022-11-10T16:37:59;4.83;;;3.20;;
17207;SDS011;8720;48.488;9.202;2022-11-10T16:40:46;4.93;;;3.00;;
17207;SDS011;8720;48.488;9.202;2022-11-10T16:43:37;3.17;;;2.87;;
17207;SDS011;8720;48.488;9.202;2022-11-10T16:46:23;4.33;;;3.30;;
17207;SDS011;8720;48.488;9.202;2022-11-10T16:49:19;4.97;;;3.87;;
17207;SDS011;8720;48.488;9.202;2022-11-10T16:52:19;4.83;;;3.77;;
17207;SDS011;8720;48.488;9.202;2022-11-10T16:55:08;7.80;;;4.27;;
17207;SDS011;8720;48.488;9.202;2022-11-10T16:57:56;9.70;;;4.60;;
17207;SDS011;8720;48.488;9.202;2022-11-10T17:00:42;7.23;;;4.10;;
17207;SDS011;8720;48.488;9.202;2022-11-10T17:03:30;4.40;;;4.00;;
17207;SDS011;8720;48.488;9.202;2022-11-10T17:06:22;8.47;;;3.77;;
17207;SDS011;8720;48.488;9.202;2022-11-10T17:09:14;6.63;;;4.20;;
17207;SDS011;8720;48.488;9.202;2022-11-10T17:12:05;3.87;;;3.43;;
17207;SDS011;8720;48.488;9.202;2022-11-10T17:14:55;4.97;;;3.80;;
17207;SDS011;8720;48.488;9.202;2022-11-10T17:17:41;5.03;;;4.20;;
17207;SDS011;8720;48.488;9.202;2022-11-10T17:20:31;6.20;;;4.07;;
17207;SDS011;8720;48.488;9.202;2022-11-10T17:23:21;7.50;;;4.43;;
17207;SDS011;8720;48.488;9.202;2022-11-10T17:26:11;7.90;;;4.17;;
17207;SDS011;8720;48.488;9.202;2022-11-10T17:28:59;7.30;;;4.50;;
17207;SDS011;8720;48.488;9.202;2022-11-10T17:31:45;4.83;;;3.13;;
17207;SDS011;8720;48.488;9.202;2022-11-10T17:34:33;7.77;;;3.10;;
17207;SDS011;8720;48.488;9.202;2022-11-10T17:37:18;5.43;;;3.40;;